createdAt,value
2018-05-19T00:41:01.506Z,10.3
2018-05-19T00:42:01.545Z,10.4
2018-05-19T00:48:01.878Z,10.3
2018-05-19T00:49:01.940Z,10.4
2018-05-19T00:54:02.336Z,10.3
2018-05-19T00:55:02.336Z,10.4
2018-05-19T00:56:02.390Z,10.3
2018-05-19T00:58:02.533Z,10.4
2018-05-19T01:01:02.777Z,10.3
2018-05-19T01:02:02.802Z,10.4
2018-05-19T01:41:05.218Z,10.4
2018-05-19T01:53:05.885Z,10.5
2018-05-19T01:54:05.956Z,10.4
2018-05-19T01:57:06.154Z,10.5
2018-05-19T01:59:06.276Z,10.4
2018-05-19T02:00:06.334Z,10.5
2018-05-19T02:01:06.404Z,10.4
2018-05-19T02:02:06.469Z,10.5
2018-05-19T02:03:06.550Z,10.4
2018-05-19T02:22:07.659Z,10.5
2018-05-19T02:30:08.146Z,10.4
2018-05-19T02:31:08.309Z,10.5
2018-05-19T02:33:08.390Z,10.4
2018-05-19T02:47:09.433Z,10.3
2018-05-19T03:04:12.586Z,10.1
2018-05-19T03:05:12.759Z,10.3
2018-05-19T03:06:12.955Z,10.1
2018-05-19T03:16:14.770Z,10.3
2018-05-19T03:17:15.009Z,10.1
2018-05-19T03:20:15.521Z,10.3
2018-05-19T03:28:16.939Z,10.4
2018-05-19T03:35:18.371Z,10.5
2018-05-19T03:36:18.946Z,10.4
2018-05-19T03:37:18.792Z,10.5
2018-05-19T03:43:19.862Z,10.6
2018-05-19T03:48:20.843Z,10.8
2018-05-19T03:56:22.282Z,10.9
2018-05-19T04:01:23.168Z,11
2018-05-19T04:10:24.900Z,11.1
2018-05-19T04:14:25.667Z,11.3
2018-05-19T04:24:27.457Z,11.4
2018-05-19T04:28:28.199Z,11.5
2018-05-19T04:32:28.922Z,11.6
2018-05-19T04:36:29.692Z,11.8
2018-05-19T04:39:30.245Z,11.9
2018-05-19T04:42:30.763Z,12
2018-05-19T04:44:31.153Z,12.1
2018-05-19T04:46:31.506Z,12.2
2018-05-19T04:49:32.039Z,12.4
2018-05-19T04:52:32.638Z,12.5
2018-05-19T04:55:33.166Z,12.6
2018-05-19T04:57:33.523Z,12.8
2018-05-19T04:59:33.876Z,12.9
2018-05-19T05:01:34.223Z,13
2018-05-19T05:03:34.649Z,13.1
2018-05-19T05:04:35.158Z,13.3
2018-05-19T05:06:35.181Z,13.4
2018-05-19T05:08:35.579Z,13.5
2018-05-19T05:10:35.936Z,13.6
2018-05-19T05:12:36.267Z,13.8
2018-05-19T05:14:36.647Z,13.9
2018-05-19T05:16:37.007Z,14
2018-05-19T05:18:37.350Z,14.1
2018-05-19T05:20:37.832Z,14.3
2018-05-19T05:22:38.184Z,14.4
2018-05-19T05:25:38.769Z,14.5
2018-05-19T05:27:39.138Z,14.6
2018-05-19T05:28:39.332Z,14.7
2018-05-19T05:29:39.513Z,14.9
2018-05-19T05:30:39.686Z,15
2018-05-19T05:31:39.880Z,15.1
2018-05-19T05:32:40.062Z,15.3
2018-05-19T05:33:40.285Z,15.4
2018-05-19T05:35:40.566Z,15.5
2018-05-19T05:37:40.985Z,15.6
2018-05-19T05:39:41.401Z,15.8
2018-05-19T05:42:41.865Z,15.9
2018-05-19T05:47:42.819Z,16
2018-05-19T05:53:43.872Z,16.1
2018-05-19T05:55:44.253Z,16.3
2018-05-19T05:57:44.663Z,16.4
2018-05-19T05:59:45.245Z,16.5
2018-05-19T06:08:46.641Z,16.6
2018-05-19T06:09:46.799Z,16.8
2018-05-19T06:11:47.225Z,16.9
2018-05-19T06:13:47.557Z,17
2018-05-19T06:15:47.982Z,17.1
2018-05-19T06:17:48.321Z,17.2
2018-05-19T06:19:48.684Z,17.4
2018-05-19T06:21:49.079Z,17.5
2018-05-19T06:22:49.247Z,17.6
2018-05-19T06:24:49.633Z,17.8
2018-05-19T06:25:49.745Z,17.9
2018-05-19T06:28:50.333Z,18
2018-05-19T06:33:51.202Z,18.1
2018-05-19T06:35:51.566Z,18.3
2018-05-19T06:36:51.807Z,18.4
2018-05-19T06:37:52.028Z,18.5
2018-05-19T06:39:52.371Z,18.8
2018-05-19T06:40:52.542Z,18.9
2018-05-19T06:41:52.744Z,19
2018-05-19T06:42:52.905Z,19.1
2018-05-19T06:43:53.555Z,19.3
2018-05-19T06:44:53.282Z,19.4
2018-05-19T06:45:53.493Z,19.5
2018-05-19T06:46:53.677Z,19.6
2018-05-19T06:47:53.949Z,19.9
2018-05-19T06:48:55.195Z,20
2018-05-19T06:49:54.204Z,20.1
2018-05-19T06:50:54.390Z,20.3
2018-05-19T06:51:54.588Z,20.4
2018-05-19T06:52:54.759Z,20.5
2018-05-19T06:53:54.948Z,20.6
2018-05-19T06:54:55.105Z,20.8
2018-05-19T06:55:55.288Z,20.9
2018-05-19T06:56:55.482Z,21
2018-05-19T06:57:55.689Z,21.1
2018-05-19T06:58:55.820Z,21.2
2018-05-19T06:59:56.016Z,21.4
2018-05-19T07:00:56.206Z,21.5
2018-05-19T07:01:56.410Z,21.6
2018-05-19T07:02:56.620Z,21.9
2018-05-19T07:03:56.812Z,22
2018-05-19T07:09:57.895Z,22.1
2018-05-19T07:11:58.299Z,22
2018-05-19T07:12:58.431Z,22.1
2018-05-19T07:13:58.616Z,22
2018-05-19T07:15:59.063Z,21.9
2018-05-19T07:16:59.317Z,21.6
2018-05-19T07:17:59.441Z,21.5
2018-05-19T07:18:59.585Z,21.4
2018-05-19T07:19:59.724Z,21.1
2018-05-19T07:20:59.963Z,21
2018-05-19T07:22:00.131Z,20.9
2018-05-19T07:23:01.104Z,20.6
2018-05-19T07:24:01.585Z,20.5
2018-05-19T07:25:01.301Z,20.3
2018-05-19T07:26:02.419Z,20.1
2018-05-19T07:27:02.588Z,20
2018-05-19T07:28:01.269Z,19.9
2018-05-19T07:29:01.367Z,19.8
2018-05-19T07:30:01.668Z,19.6
2018-05-19T07:32:01.932Z,19.5
2018-05-19T07:33:02.112Z,19.4
2018-05-19T07:34:02.326Z,19.5
2018-05-19T07:38:03.061Z,19.6
2018-05-19T07:39:03.291Z,19.8
2018-05-19T07:40:03.472Z,19.9
2018-05-19T07:42:03.946Z,20
2018-05-19T07:45:04.459Z,20.1
2018-05-19T07:47:04.796Z,20.3
2018-05-19T07:53:05.948Z,20.1
2018-05-19T07:54:06.089Z,20.3
2018-05-19T07:55:06.328Z,20.1
2018-05-19T07:56:06.474Z,20.3
2018-05-19T08:00:07.228Z,20.4
2018-05-19T08:02:07.558Z,20.5
2018-05-19T08:03:07.754Z,20.6
2018-05-19T08:04:07.905Z,20.8
2018-05-19T08:06:08.275Z,20.9
2018-05-19T08:07:08.522Z,21
2018-05-19T08:08:08.702Z,21.1
2018-05-19T08:09:08.851Z,21.2
2018-05-19T08:10:09.102Z,21.4
2018-05-19T08:11:09.249Z,21.6
2018-05-19T08:12:09.449Z,21.8
2018-05-19T08:14:09.845Z,21.9
2018-05-19T08:15:10.034Z,22
2018-05-19T08:16:10.192Z,22.1
2018-05-19T08:17:10.395Z,22.4
2018-05-19T08:18:10.532Z,22.6
2018-05-19T08:19:10.742Z,23
2018-05-19T08:20:11.009Z,23.3
2018-05-19T08:21:11.079Z,23.5
2018-05-19T08:22:11.295Z,23.6
2018-05-19T08:23:11.501Z,23.9
2018-05-19T08:24:11.684Z,24
2018-05-19T08:25:11.914Z,24.1
2018-05-19T08:27:12.246Z,24
2018-05-19T08:29:12.625Z,23.9
2018-05-19T08:31:12.971Z,23.7
2018-05-19T08:32:13.159Z,23.6
2018-05-19T08:33:13.322Z,23.5
2018-05-19T08:34:13.513Z,23.4
2018-05-19T08:35:13.700Z,23.3
2018-05-19T08:37:14.038Z,23.4
2018-05-19T08:38:14.252Z,23.6
2018-05-19T08:39:14.418Z,24
2018-05-19T08:40:14.603Z,24.5
2018-05-19T08:41:14.895Z,24.7
2018-05-19T08:42:15.004Z,25
2018-05-19T08:44:15.376Z,25.1
2018-05-19T08:48:16.059Z,25
2018-05-19T08:50:16.438Z,24.7
2018-05-19T08:51:16.599Z,24.6
2018-05-19T08:52:16.772Z,24.5
2018-05-19T08:54:17.134Z,24.4
2018-05-19T08:55:17.368Z,24.3
2018-05-19T08:57:17.717Z,24.1
2018-05-19T08:58:17.950Z,24.3
2018-05-19T09:00:18.275Z,24.4
2018-05-19T09:01:18.428Z,24.6
2018-05-19T09:02:18.657Z,25
2018-05-19T09:03:18.822Z,25.3
2018-05-19T09:04:19.059Z,25.5
2018-05-19T09:05:19.238Z,25.6
2018-05-19T09:06:19.419Z,25.8
2018-05-19T09:12:20.531Z,25.6
2018-05-19T09:14:20.865Z,25.5
2018-05-19T09:15:21.272Z,25.4
2018-05-19T09:16:21.513Z,25.3
2018-05-19T09:17:21.718Z,25.1
2018-05-19T09:18:21.867Z,24.9
2018-05-19T09:19:22.014Z,24.7
2018-05-19T09:20:22.238Z,24.5
2018-05-19T09:21:22.437Z,24.3
2018-05-19T09:22:22.584Z,24.1
2018-05-19T09:23:22.796Z,23.9
2018-05-19T09:24:22.933Z,23.5
2018-05-19T09:25:23.186Z,23.3
2018-05-19T09:26:23.306Z,23
2018-05-19T09:27:23.484Z,22.8
2018-05-19T09:28:23.724Z,22.4
2018-05-19T09:29:23.847Z,22.1
2018-05-19T09:30:24.070Z,21.9
2018-05-19T09:31:24.222Z,21.5
2018-05-19T09:32:24.412Z,21.2
2018-05-19T09:33:24.586Z,20.9
2018-05-19T09:34:24.767Z,20.6
2018-05-19T09:35:24.988Z,20.4
2018-05-19T09:36:25.141Z,20.1
2018-05-19T09:37:25.352Z,20
2018-05-19T09:38:25.540Z,19.8
2018-05-19T09:39:25.717Z,19.6
2018-05-19T09:42:26.229Z,19.8
2018-05-19T09:44:26.616Z,19.9
2018-05-19T09:45:26.844Z,20.1
2018-05-19T09:46:27.030Z,20.4
2018-05-19T09:47:27.416Z,20.5
2018-05-19T09:48:27.384Z,20.8
2018-05-19T09:49:27.551Z,21.1
2018-05-19T09:50:27.747Z,21.5
2018-05-19T09:51:27.927Z,21.9
2018-05-19T09:52:28.127Z,22.5
2018-05-19T09:53:28.317Z,23
2018-05-19T09:54:28.470Z,23.5
2018-05-19T09:55:28.636Z,24
2018-05-19T09:56:28.831Z,24.5
2018-05-19T09:57:29.024Z,25
2018-05-19T09:58:29.201Z,25.5
2018-05-19T09:59:29.514Z,25.9
2018-05-19T10:00:29.681Z,26.1
2018-05-19T10:01:29.789Z,26.4
2018-05-19T10:02:29.977Z,26.6
2018-05-19T10:03:30.131Z,26.8
2018-05-19T10:04:30.379Z,26.9
2018-05-19T10:05:30.536Z,27
2018-05-19T10:08:31.109Z,26.9
2018-05-19T10:10:31.509Z,26.8
2018-05-19T10:11:31.739Z,26.6
2018-05-19T10:12:31.853Z,26.5
2018-05-19T10:13:32.103Z,26.4
2018-05-19T10:14:32.310Z,26.1
2018-05-19T10:15:32.480Z,26
2018-05-19T10:16:32.706Z,25.8
2018-05-19T10:17:32.832Z,25.5
2018-05-19T10:18:33.051Z,25.3
2018-05-19T10:19:33.239Z,25
2018-05-19T10:20:33.420Z,24.7
2018-05-19T10:21:33.660Z,24.5
2018-05-19T10:22:33.787Z,24.3
2018-05-19T10:23:33.967Z,24.1
2018-05-19T10:24:34.151Z,24
2018-05-19T10:25:34.337Z,23.9
2018-05-19T10:28:34.902Z,24
2018-05-19T10:30:35.312Z,24.3
2018-05-19T10:32:35.743Z,24.5
2018-05-19T10:33:35.910Z,24.6
2018-05-19T10:34:36.133Z,24.9
2018-05-19T10:35:36.448Z,25.3
2018-05-19T10:36:36.431Z,25.5
2018-05-19T10:37:36.592Z,25.9
2018-05-19T10:38:36.814Z,26.1
2018-05-19T10:39:36.995Z,26.2
2018-05-19T10:40:37.143Z,26.4
2018-05-19T10:41:37.331Z,26.5
2018-05-19T10:43:37.690Z,26.6
2018-05-19T10:44:37.941Z,26.8
2018-05-19T10:45:38.178Z,26.9
2018-05-19T10:47:38.444Z,27
2018-05-19T10:48:38.681Z,27.1
2018-05-19T10:49:38.869Z,27.2
2018-05-19T10:50:38.971Z,27.4
2018-05-19T10:52:39.438Z,27.5
2018-05-19T10:54:39.790Z,27.6
2018-05-19T10:57:40.390Z,27.5
2018-05-19T10:59:40.720Z,27.4
2018-05-19T11:00:40.922Z,27.1
2018-05-19T11:01:41.190Z,27
2018-05-19T11:02:41.174Z,26.8
2018-05-19T11:03:41.434Z,26.6
2018-05-19T11:04:41.544Z,26.5
2018-05-19T11:06:41.997Z,26.4
2018-05-19T11:07:42.199Z,26.2
2018-05-19T11:08:42.297Z,26.1
2018-05-19T11:09:42.449Z,26
2018-05-19T11:10:42.699Z,25.8
2018-05-19T11:11:43.003Z,25.6
2018-05-19T11:12:43.030Z,25.5
2018-05-19T11:13:43.169Z,25.4
2018-05-19T11:15:43.559Z,25.3
2018-05-19T11:19:44.324Z,25.1
2018-05-19T11:23:45.034Z,25
2018-05-19T11:24:45.208Z,24.9
2018-05-19T11:25:45.553Z,24.7
2018-05-19T11:26:45.635Z,24.6
2018-05-19T11:27:45.782Z,24.5
2018-05-19T11:28:45.989Z,24.4
2018-05-19T11:29:46.160Z,24.3
2018-05-19T11:31:46.526Z,24.1
2018-05-19T11:32:46.713Z,24
2018-05-19T11:34:47.077Z,23.9
2018-05-19T11:35:47.234Z,23.7
2018-05-19T11:36:47.444Z,23.6
2018-05-19T11:37:47.676Z,23.5
2018-05-19T11:38:47.842Z,23.6
2018-05-19T11:40:48.246Z,23.7
2018-05-19T11:41:48.383Z,23.9
2018-05-19T11:42:48.573Z,24.1
2018-05-19T11:43:48.740Z,24.4
2018-05-19T11:44:48.944Z,24.5
2018-05-19T11:45:49.121Z,24.7
2018-05-19T11:46:49.302Z,25
2018-05-19T11:47:49.462Z,25.1
2018-05-19T11:48:49.693Z,25.3
2018-05-19T11:49:49.801Z,25.5
2018-05-19T11:50:50.009Z,25.8
2018-05-19T11:51:50.235Z,26
2018-05-19T11:52:50.412Z,26.2
2018-05-19T11:53:50.569Z,26.5
2018-05-19T11:54:50.783Z,26.6
2018-05-19T11:55:50.965Z,26.9
2018-05-19T11:56:51.129Z,27.1
2018-05-19T11:57:51.287Z,27.4
2018-05-19T11:58:51.538Z,27.5
2018-05-19T11:59:51.706Z,27.8
2018-05-19T12:00:51.904Z,28
2018-05-19T12:01:52.016Z,28.5
2018-05-19T12:02:52.200Z,29.1
2018-05-19T12:03:52.447Z,30.5
2018-05-19T12:04:52.578Z,30.9
2018-05-19T12:05:52.794Z,30.8
2018-05-19T12:06:52.966Z,30.9
2018-05-19T12:07:53.122Z,31.1
2018-05-19T12:08:53.357Z,31.8
2018-05-19T12:09:53.541Z,32.6
2018-05-19T12:10:53.703Z,32.9
2018-05-19T12:11:54.155Z,33.4
2018-05-19T12:12:54.086Z,33.6
2018-05-19T12:13:55.173Z,34.4
2018-05-19T12:15:54.659Z,34.1
2018-05-19T12:16:54.771Z,34
2018-05-19T12:17:55.245Z,34.2
2018-05-19T12:18:55.449Z,34.5
2018-05-19T12:19:55.598Z,36
2018-05-19T12:20:55.753Z,36.4
2018-05-19T12:21:55.928Z,37
2018-05-19T12:22:56.137Z,37.2
2018-05-19T12:23:56.338Z,37.1
2018-05-19T12:24:56.523Z,36.6
2018-05-19T12:25:56.712Z,36.1
2018-05-19T12:26:56.868Z,35.6
2018-05-19T12:27:57.097Z,35.4
2018-05-19T12:28:57.311Z,37.1
2018-05-19T12:29:57.457Z,39
2018-05-19T12:30:57.642Z,40.5
2018-05-19T12:31:57.795Z,40.9
2018-05-19T12:32:58.009Z,40
2018-05-19T12:33:58.181Z,41.2
2018-05-19T12:34:58.370Z,42.4
2018-05-19T12:35:58.559Z,43.5
2018-05-19T12:36:58.689Z,43.4
2018-05-19T12:37:58.862Z,43
2018-05-19T12:38:59.058Z,43.1
2018-05-19T12:39:59.274Z,42.9
2018-05-19T12:40:59.539Z,42.6
2018-05-19T12:41:59.663Z,43.4
2018-05-19T12:42:59.841Z,43.3
2018-05-19T12:44:00.022Z,42.6
2018-05-19T12:45:00.163Z,41.7
2018-05-19T12:46:00.856Z,41.2
2018-05-19T12:47:01.025Z,41.6
2018-05-19T12:49:00.912Z,41.9
2018-05-19T12:50:01.706Z,42.6
2018-05-19T12:51:01.573Z,43.5
2018-05-19T12:52:01.595Z,44.2
2018-05-19T12:53:01.663Z,44.9
2018-05-19T12:54:01.876Z,45.2
2018-05-19T12:55:02.208Z,45.6
2018-05-19T12:56:02.258Z,46
2018-05-19T12:57:02.403Z,46.2
2018-05-19T12:58:02.594Z,46.7
2018-05-19T12:59:02.774Z,47
2018-05-19T13:00:02.965Z,45.6
2018-05-19T13:01:03.111Z,45.8
2018-05-19T13:02:03.310Z,44.6
2018-05-19T13:03:03.523Z,43.7
2018-05-19T13:04:03.709Z,44.9
2018-05-19T13:05:03.890Z,45.8
2018-05-19T13:07:04.282Z,46.1
2018-05-19T13:08:04.447Z,45.9
2018-05-19T13:09:04.616Z,44.6
2018-05-19T13:10:04.779Z,43.7
2018-05-19T13:11:05.087Z,43
2018-05-19T13:12:05.144Z,42.1
2018-05-19T13:13:05.394Z,41.2
2018-05-19T13:14:05.581Z,40.4
2018-05-19T13:15:05.758Z,39.9
2018-05-19T13:17:06.109Z,40.5
2018-05-19T13:18:06.298Z,40.9
2018-05-19T13:19:06.676Z,40.5
2018-05-19T13:20:06.897Z,40.9
2018-05-19T13:21:07.075Z,40.4
2018-05-19T13:22:07.266Z,39.2
2018-05-19T13:23:07.427Z,38.4
2018-05-19T13:24:07.594Z,37.9
2018-05-19T13:25:07.788Z,37
2018-05-19T13:26:07.949Z,36.4
2018-05-19T13:27:08.144Z,36
2018-05-19T13:28:08.354Z,35.9
2018-05-19T13:29:08.540Z,36.2
2018-05-19T13:30:08.749Z,37.5
2018-05-19T13:31:08.892Z,36.9
2018-05-19T13:32:09.091Z,36.2
2018-05-19T13:33:09.267Z,37.1
2018-05-19T13:34:09.487Z,36.7
2018-05-19T13:35:09.611Z,36.9
2018-05-19T13:36:09.829Z,37
2018-05-19T13:37:10.037Z,38.1
2018-05-19T13:38:10.207Z,39.1
2018-05-19T13:39:10.400Z,39.9
2018-05-19T13:40:10.562Z,40
2018-05-19T13:41:10.697Z,38.6
2018-05-19T13:42:10.886Z,37.6
2018-05-19T13:43:11.122Z,37.7
2018-05-19T13:44:11.262Z,38.2
2018-05-19T13:45:11.477Z,38.5
2018-05-19T13:46:11.647Z,38.9
2018-05-19T13:47:11.875Z,39.1
2018-05-19T13:48:12.028Z,38.2
2018-05-19T13:49:12.223Z,37.5
2018-05-19T13:50:12.393Z,38
2018-05-19T13:51:12.536Z,38.7
2018-05-19T13:52:12.834Z,38.5
2018-05-19T13:53:12.963Z,39.2
2018-05-19T13:54:13.146Z,39.6
2018-05-19T13:55:13.328Z,40.8
2018-05-19T13:56:13.481Z,41.5
2018-05-19T13:57:13.659Z,42.2
2018-05-19T13:58:13.822Z,40.9
2018-05-19T13:59:14.006Z,39.9
2018-05-19T14:00:14.224Z,39.1
2018-05-19T14:01:14.408Z,39
2018-05-19T14:02:14.572Z,38
2018-05-19T14:03:14.765Z,37.2
2018-05-19T14:04:14.964Z,36.5
2018-05-19T14:05:15.281Z,35.7
2018-05-19T14:06:15.352Z,35
2018-05-19T14:07:15.544Z,34.2
2018-05-19T14:08:15.695Z,33.6
2018-05-19T14:09:15.865Z,33
2018-05-19T14:10:16.075Z,33.1
2018-05-19T14:11:16.220Z,32.4
2018-05-19T14:12:16.544Z,32
2018-05-19T14:13:16.584Z,33.2
2018-05-19T14:14:16.738Z,34.6
2018-05-19T14:15:16.917Z,35.5
2018-05-19T14:16:17.181Z,36.2
2018-05-19T14:17:17.339Z,36.9
2018-05-19T14:18:17.517Z,37.4
2018-05-19T14:19:17.703Z,37.7
2018-05-19T14:20:17.905Z,38.1
2018-05-19T14:21:18.054Z,38.5
2018-05-19T14:22:18.308Z,39
2018-05-19T14:23:18.449Z,39.4
2018-05-19T14:24:18.654Z,39.9
2018-05-19T14:25:18.820Z,40.2
2018-05-19T14:26:19.050Z,40.6
2018-05-19T14:27:19.224Z,40.9
2018-05-19T14:28:19.350Z,41.1
2018-05-19T14:29:19.535Z,41.2
2018-05-19T14:30:19.704Z,41.5
2018-05-19T14:31:19.949Z,41.6
2018-05-19T14:32:20.151Z,41.9
2018-05-19T14:33:20.324Z,42.2
2018-05-19T14:34:20.486Z,42.5
2018-05-19T14:35:20.690Z,42.9
2018-05-19T14:36:20.935Z,43.4
2018-05-19T14:37:21.077Z,43.9
2018-05-19T14:38:21.262Z,44.1
2018-05-19T14:39:21.487Z,44
2018-05-19T14:40:21.668Z,44.2
2018-05-19T14:41:21.877Z,44.5
2018-05-19T14:43:22.225Z,43.6
2018-05-19T14:44:22.415Z,42.1
2018-05-19T14:45:23.557Z,40.9
2018-05-19T14:46:22.781Z,39.6
2018-05-19T14:47:22.917Z,38.5
2018-05-19T14:48:23.135Z,37.5
2018-05-19T14:49:23.277Z,36.4
2018-05-19T14:50:23.509Z,35.4
2018-05-19T14:51:23.695Z,34.5
2018-05-19T14:52:24.136Z,33.6
2018-05-19T14:53:24.183Z,32.9
2018-05-19T14:54:24.289Z,32.1
2018-05-19T14:55:24.467Z,31.5
2018-05-19T14:56:24.651Z,30.9
2018-05-19T14:57:24.831Z,30.3
2018-05-19T14:58:25.061Z,29.6
2018-05-19T14:59:25.302Z,29.3
2018-05-19T15:00:25.410Z,28.7
2018-05-19T15:02:25.703Z,30.3
2018-05-19T15:03:25.904Z,31.5
2018-05-19T15:04:26.158Z,32.4
2018-05-19T15:05:26.317Z,33.1
2018-05-19T15:06:26.501Z,33.7
2018-05-19T15:07:26.665Z,34.5
2018-05-19T15:08:26.865Z,35
2018-05-19T15:09:27.066Z,35.5
2018-05-19T15:10:27.224Z,36
2018-05-19T15:11:27.397Z,36.4
2018-05-19T15:12:27.598Z,36.7
2018-05-19T15:13:27.791Z,37.1
2018-05-19T15:14:27.944Z,37.5
2018-05-19T15:15:28.400Z,37.9
2018-05-19T15:16:28.312Z,38.2
2018-05-19T15:17:28.485Z,38.6
2018-05-19T15:18:28.623Z,38.9
2018-05-19T15:19:28.822Z,39
2018-05-19T15:20:29.032Z,39.2
2018-05-19T15:21:29.250Z,39.4
2018-05-19T15:22:29.433Z,39.5
2018-05-19T15:23:29.596Z,39.7
2018-05-19T15:24:29.792Z,40.1
2018-05-19T15:25:30.007Z,40.4
2018-05-19T15:26:30.204Z,40.6
2018-05-19T15:27:30.349Z,39.9
2018-05-19T15:29:30.750Z,40.2
2018-05-19T15:30:30.883Z,39.6
2018-05-19T15:31:31.129Z,39
2018-05-19T15:32:31.319Z,39.1
2018-05-19T15:33:31.473Z,39.2
2018-05-19T15:34:31.635Z,38.4
2018-05-19T15:35:31.829Z,37.1
2018-05-19T15:36:32.082Z,36.5
2018-05-19T15:37:32.218Z,35.9
2018-05-19T15:38:32.493Z,35.2
2018-05-19T15:39:32.596Z,34.7
2018-05-19T15:40:32.766Z,33.6
2018-05-19T15:41:32.927Z,32.5
2018-05-19T15:42:33.122Z,31.5
2018-05-19T15:43:33.314Z,30.6
2018-05-19T15:44:33.825Z,29.8
2018-05-19T15:45:33.715Z,29
2018-05-19T15:46:33.882Z,28.4
2018-05-19T15:47:34.117Z,27.8
2018-05-19T15:48:34.318Z,27.1
2018-05-19T15:49:34.460Z,26.6
2018-05-19T15:50:34.646Z,26.1
2018-05-19T15:51:34.794Z,25.8
2018-05-19T15:52:34.998Z,25.5
2018-05-19T15:53:35.216Z,25.4
2018-05-19T15:54:35.374Z,25.1
2018-05-19T15:55:35.566Z,25
2018-05-19T15:56:35.754Z,24.9
2018-05-19T15:57:35.875Z,25.5
2018-05-19T15:58:36.063Z,26.6
2018-05-19T15:59:36.248Z,27.6
2018-05-19T16:00:36.448Z,28.4
2018-05-19T16:01:36.651Z,28.9
2018-05-19T16:02:36.855Z,29.5
2018-05-19T16:03:37.051Z,29.9
2018-05-19T16:04:37.240Z,30.4
2018-05-19T16:05:37.373Z,30.8
2018-05-19T16:06:37.553Z,31
2018-05-19T16:07:37.710Z,31.4
2018-05-19T16:08:37.907Z,31.6
2018-05-19T16:09:38.117Z,31.9
2018-05-19T16:10:38.302Z,32
2018-05-19T16:11:38.487Z,32.2
2018-05-19T16:12:38.651Z,32.4
2018-05-19T16:13:38.807Z,32.6
2018-05-19T16:14:39.028Z,32.7
2018-05-19T16:16:39.352Z,32.9
2018-05-19T16:19:39.947Z,33
2018-05-19T16:20:40.125Z,33.1
2018-05-19T16:21:40.310Z,33.2
2018-05-19T16:25:41.043Z,33.1
2018-05-19T16:27:41.445Z,33.2
2018-05-19T16:29:41.864Z,33.4
2018-05-19T16:30:41.951Z,33.2
2018-05-19T16:32:42.421Z,33
2018-05-19T16:33:42.484Z,32.7
2018-05-19T16:34:42.749Z,32.6
2018-05-19T16:35:42.908Z,32.4
2018-05-19T16:36:43.077Z,32.2
2018-05-19T16:37:43.251Z,32.1
2018-05-19T16:38:43.492Z,32
2018-05-19T16:39:43.651Z,31.8
2018-05-19T16:40:43.797Z,30.9
2018-05-19T16:41:43.971Z,30.5
2018-05-19T16:42:44.187Z,30.6
2018-05-19T16:44:44.548Z,30.8
2018-05-19T16:45:44.699Z,30.6
2018-05-19T16:46:44.939Z,30.3
2018-05-19T16:47:45.083Z,29.3
2018-05-19T16:48:45.313Z,28.1
2018-05-19T16:49:45.498Z,27.4
2018-05-19T16:50:45.700Z,26.6
2018-05-19T16:51:45.873Z,26
2018-05-19T16:52:46.055Z,25.5
2018-05-19T16:53:46.268Z,25
2018-05-19T16:54:46.419Z,24.5
2018-05-19T16:56:46.764Z,25.3
2018-05-19T16:57:46.927Z,25.8
2018-05-19T16:58:47.147Z,26.1
2018-05-19T16:59:47.317Z,26.4
2018-05-19T17:00:47.504Z,26.6
2018-05-19T17:01:47.739Z,26.8
2018-05-19T17:02:47.883Z,26.9
2018-05-19T17:03:48.028Z,27
2018-05-19T17:04:48.225Z,27.1
2018-05-19T17:05:48.494Z,27.2
2018-05-19T17:12:49.714Z,27.1
2018-05-19T17:13:49.864Z,27
2018-05-19T17:14:50.045Z,26.5
2018-05-19T17:15:50.230Z,25.9
2018-05-19T17:16:50.478Z,25.3
2018-05-19T17:17:50.640Z,24.6
2018-05-19T17:18:50.835Z,24.3
2018-05-19T17:19:51.022Z,23.7
2018-05-19T17:20:51.178Z,23.5
2018-05-19T17:21:51.335Z,23.1
2018-05-19T17:22:51.520Z,22.8
2018-05-19T17:23:51.707Z,22.5
2018-05-19T17:24:51.936Z,22.2
2018-05-19T17:25:52.112Z,22
2018-05-19T17:26:52.308Z,21.8
2018-05-19T17:27:52.449Z,21.5
2018-05-19T17:28:52.617Z,21.2
2018-05-19T17:29:52.803Z,21
2018-05-19T17:30:53.011Z,20.9
2018-05-19T17:31:53.211Z,20.6
2018-05-19T17:32:53.428Z,20.5
2018-05-19T17:33:53.609Z,20.4
2018-05-19T17:34:53.777Z,20.3
2018-05-19T17:35:53.915Z,20
2018-05-19T17:36:54.095Z,19.9
2018-05-19T17:37:54.317Z,19.8
2018-05-19T17:38:54.512Z,19.6
2018-05-19T17:39:54.703Z,19.5
2018-05-19T17:40:54.891Z,19.4
2018-05-19T17:41:55.084Z,19.3
2018-05-19T17:42:55.253Z,19.1
2018-05-19T17:44:55.654Z,18.9
2018-05-19T17:45:55.802Z,18.8
2018-05-19T17:47:56.155Z,18.6
2018-05-19T17:48:56.368Z,18.5
2018-05-19T17:49:56.561Z,18.4
2018-05-19T17:50:56.747Z,18.3
2018-05-19T17:52:57.088Z,18.1
2018-05-19T17:53:57.296Z,18
2018-05-19T17:54:57.492Z,17.9
2018-05-19T17:56:57.797Z,17.8
2018-05-19T17:57:58.057Z,17.6
2018-05-19T17:59:58.379Z,17.5
2018-05-19T18:00:58.536Z,17.4
2018-05-19T18:02:58.885Z,17.2
2018-05-19T18:03:59.114Z,17.1
2018-05-19T18:04:59.289Z,17
2018-05-19T18:06:59.687Z,16.9
2018-05-19T18:09:00.029Z,16.8
2018-05-19T18:10:00.218Z,16.6
2018-05-19T18:12:01.116Z,16.5
2018-05-19T18:14:01.459Z,16.4
2018-05-19T18:15:01.117Z,16.3
2018-05-19T18:17:01.522Z,16.1
2018-05-19T18:19:01.944Z,16
2018-05-19T18:21:02.216Z,15.9
2018-05-19T18:23:02.651Z,15.8
2018-05-19T18:24:02.781Z,15.6
2018-05-19T18:26:03.197Z,15.5
2018-05-19T18:28:03.578Z,15.4
2018-05-19T18:30:03.939Z,15.3
2018-05-19T18:32:04.280Z,15.1
2018-05-19T18:33:04.563Z,15
2018-05-19T18:36:05.002Z,14.9
2018-05-19T18:37:05.173Z,14.7
2018-05-19T18:39:05.610Z,14.6
2018-05-19T18:41:05.975Z,14.5
2018-05-19T18:42:06.106Z,14.4
2018-05-19T18:44:06.509Z,14.3
2018-05-19T18:45:06.744Z,14.1
2018-05-19T18:47:07.092Z,14
2018-05-19T18:49:07.432Z,13.9
2018-05-19T18:50:07.649Z,13.8
2018-05-19T18:52:07.953Z,13.6
2018-05-19T18:55:08.607Z,13.5
2018-05-19T18:57:08.905Z,13.4
2018-05-19T19:00:09.536Z,13.3
2018-05-19T19:02:09.835Z,13.1
2018-05-19T19:04:10.211Z,13
2018-05-19T19:08:10.879Z,12.9
2018-05-19T19:11:11.496Z,12.8
2018-05-19T19:16:12.371Z,12.6
2018-05-19T19:22:13.468Z,12.5
2018-05-19T19:24:13.818Z,12.4
2018-05-19T19:26:14.196Z,12.2
2018-05-19T19:31:15.171Z,12.1
2018-05-19T19:33:15.547Z,12
2018-05-19T19:36:16.058Z,11.9
2018-05-19T19:38:16.489Z,11.8
2018-05-19T19:40:16.821Z,11.6
2018-05-19T19:42:17.213Z,11.5
2018-05-19T19:44:17.592Z,11.4
2018-05-19T19:47:18.107Z,11.3
2018-05-19T19:50:18.701Z,11.1
2018-05-19T19:53:19.244Z,11
2018-05-19T19:55:19.565Z,10.9
2018-05-19T19:57:19.902Z,10.8
2018-05-19T20:00:20.516Z,10.6
2018-05-19T20:04:21.235Z,10.5
2018-05-19T20:07:21.845Z,10.4
2018-05-19T20:11:22.532Z,10.3
2018-05-19T20:15:23.310Z,10.1
2018-05-19T20:19:24.047Z,10
2018-05-19T20:25:25.120Z,9.9
2018-05-19T20:30:26.032Z,9.8
2018-05-19T20:38:27.536Z,9.6
2018-05-19T20:42:28.277Z,9.5
2018-05-19T20:46:28.963Z,9.4
2018-05-19T20:51:29.960Z,9.3
2018-05-19T20:54:30.495Z,9.1
2018-05-19T20:57:30.996Z,9
2018-05-19T21:02:31.919Z,8.9
2018-05-19T21:08:33.054Z,8.8
2018-05-19T21:12:33.805Z,8.6
2018-05-19T21:19:35.082Z,8.5
2018-05-19T21:25:36.359Z,8.4
2018-05-19T21:27:36.746Z,8.5
2018-05-19T21:28:36.922Z,8.4
2018-05-19T21:42:39.546Z,8.3
2018-05-19T21:50:41.090Z,8.1
2018-05-19T21:57:42.352Z,8
2018-05-19T21:58:42.581Z,8.1
2018-05-19T21:59:42.767Z,8
2018-05-19T22:05:43.913Z,7.9
2018-05-19T22:06:44.071Z,8
2018-05-19T22:07:44.251Z,7.9
2018-05-19T22:19:46.521Z,7.7
2018-05-19T22:24:47.460Z,7.6
2018-05-19T22:29:48.413Z,7.5
2018-05-19T22:33:49.180Z,7.4
2018-05-19T22:39:50.296Z,7.2
2018-05-19T23:02:54.515Z,7.1
2018-05-19T23:12:56.380Z,7
2018-05-19T23:13:56.642Z,7.1
2018-05-19T23:14:56.739Z,7
2018-05-19T23:30:59.706Z,6.9
2018-05-19T23:40:01.450Z,6.7
2018-05-19T23:46:02.484Z,6.6
2018-05-19T23:58:04.741Z,6.5
2018-05-19T23:59:04.897Z,6.6
